sensor_id;sensor_type;location;lat;lon;timestamp;P1;durP1;ratioP1;P2;durP2;ratioP2
56255;SDS011;57229;51.432;-2.598;2022-09-09T00:02:26;6.90;;;3.60;;
56255;SDS011;57229;51.432;-2.598;2022-09-09T00:08:18;7.10;;;3.13;;
56255;SDS011;57229;51.432;-2.598;2022-09-09T00:13:40;6.65;;;3.17;;
56255;SDS011;57229;51.432;-2.598;2022-09-09T00:27:06;6.05;;;3.35;;
56255;SDS011;57229;51.432;-2.598;2022-09-09T00:32:13;4.32;;;2.90;;
56255;SDS011;57229;51.432;-2.598;2022-09-09T00:34:51;5.32;;;2.80;;
56255;SDS011;57229;51.432;-2.598;2022-09-09T00:37:29;5.50;;;3.05;;
56255;SDS011;57229;51.432;-2.598;2022-09-09T00:39:57;4.60;;;2.80;;
56255;SDS011;57229;51.432;-2.598;2022-09-09T00:48:50;5.25;;;2.53;;
56255;SDS011;57229;51.432;-2.598;2022-09-09T00:57:26;5.07;;;2.67;;
56255;SDS011;57229;51.432;-2.598;2022-09-09T01:05:48;6.95;;;2.58;;
56255;SDS011;57229;51.432;-2.598;2022-09-09T01:11:20;4.65;;;2.15;;
56255;SDS011;57229;51.432;-2.598;2022-09-09T01:13:52;2.60;;;2.30;;
56255;SDS011;57229;51.432;-2.598;2022-09-09T01:16:24;5.55;;;2.58;;
56255;SDS011;57229;51.432;-2.598;2022-09-09T01:18:51;6.07;;;2.42;;
56255;SDS011;57229;51.432;-2.598;2022-09-09T01:26:48;4.68;;;2.47;;
56255;SDS011;57229;51.432;-2.598;2022-09-09T01:29:17;3.15;;;2.22;;
56255;SDS011;57229;51.432;-2.598;2022-09-09T01:34:35;3.80;;;2.05;;
56255;SDS011;57229;51.432;-2.598;2022-09-09T01:37:08;2.67;;;1.85;;
56255;SDS011;57229;51.432;-2.598;2022-09-09T01:39:37;2.72;;;1.80;;
56255;SDS011;57229;51.432;-2.598;2022-09-09T01:42:06;4.82;;;2.10;;
56255;SDS011;57229;51.432;-2.598;2022-09-09T01:44:35;4.00;;;2.20;;
56255;SDS011;57229;51.432;-2.598;2022-09-09T01:47:02;3.95;;;2.28;;
56255;SDS011;57229;51.432;-2.598;2022-09-09T01:49:27;4.03;;;2.30;;
56255;SDS011;57229;51.432;-2.598;2022-09-09T01:51:54;4.63;;;2.13;;
56255;SDS011;57229;51.432;-2.598;2022-09-09T01:54:21;6.95;;;2.20;;
56255;SDS011;57229;51.432;-2.598;2022-09-09T02:00:07;2.67;;;1.80;;
56255;SDS011;57229;51.432;-2.598;2022-09-09T02:02:37;3.15;;;1.80;;
56255;SDS011;57229;51.432;-2.598;2022-09-09T02:07:51;5.97;;;2.00;;
56255;SDS011;57229;51.432;-2.598;2022-09-09T02:13:09;2.33;;;1.70;;
56255;SDS011;57229;51.432;-2.598;2022-09-09T02:15:42;3.33;;;1.90;;
56255;SDS011;57229;51.432;-2.598;2022-09-09T02:18:17;4.43;;;2.03;;
56255;SDS011;57229;51.432;-2.598;2022-09-09T02:20:48;3.90;;;1.90;;
56255;SDS011;57229;51.432;-2.598;2022-09-09T02:23:16;2.90;;;1.80;;
56255;SDS011;57229;51.432;-2.598;2022-09-09T02:25:44;6.28;;;1.83;;
56255;SDS011;57229;51.432;-2.598;2022-09-09T02:28:11;3.50;;;1.70;;
56255;SDS011;57229;51.432;-2.598;2022-09-09T02:30:40;6.10;;;1.85;;
56255;SDS011;57229;51.432;-2.598;2022-09-09T02:33:09;3.25;;;1.83;;
56255;SDS011;57229;51.432;-2.598;2022-09-09T02:35:37;2.97;;;1.85;;
56255;SDS011;57229;51.432;-2.598;2022-09-09T02:38:07;3.28;;;1.85;;
56255;SDS011;57229;51.432;-2.598;2022-09-09T02:40:35;3.03;;;1.60;;
56255;SDS011;57229;51.432;-2.598;2022-09-09T02:43:01;3.42;;;1.48;;
56255;SDS011;57229;51.432;-2.598;2022-09-09T02:45:31;2.50;;;1.52;;
56255;SDS011;57229;51.432;-2.598;2022-09-09T02:48:30;2.35;;;1.60;;
56255;SDS011;57229;51.432;-2.598;2022-09-09T02:53:47;2.22;;;1.60;;
56255;SDS011;57229;51.432;-2.598;2022-09-09T02:56:18;4.53;;;1.58;;
56255;SDS011;57229;51.432;-2.598;2022-09-09T02:58:47;2.35;;;1.60;;
56255;SDS011;57229;51.432;-2.598;2022-09-09T03:01:14;3.03;;;1.58;;
56255;SDS011;57229;51.432;-2.598;2022-09-09T03:03:40;3.70;;;1.55;;
56255;SDS011;57229;51.432;-2.598;2022-09-09T03:06:10;5.30;;;1.77;;
56255;SDS011;57229;51.432;-2.598;2022-09-09T03:08:37;6.68;;;1.60;;
56255;SDS011;57229;51.432;-2.598;2022-09-09T03:11:03;2.78;;;1.60;;
56255;SDS011;57229;51.432;-2.598;2022-09-09T03:13:29;3.40;;;1.33;;
56255;SDS011;57229;51.432;-2.598;2022-09-09T03:15:55;2.75;;;1.60;;
56255;SDS011;57229;51.432;-2.598;2022-09-09T03:18:20;3.45;;;1.60;;
56255;SDS011;57229;51.432;-2.598;2022-09-09T03:20:46;4.68;;;1.58;;
56255;SDS011;57229;51.432;-2.598;2022-09-09T03:23:16;3.20;;;1.50;;
56255;SDS011;57229;51.432;-2.598;2022-09-09T03:25:49;4.35;;;1.60;;
56255;SDS011;57229;51.432;-2.598;2022-09-09T03:28:16;4.93;;;1.67;;
56255;SDS011;57229;51.432;-2.598;2022-09-09T03:30:42;2.22;;;1.52;;
56255;SDS011;57229;51.432;-2.598;2022-09-09T03:33:08;3.78;;;1.60;;
56255;SDS011;57229;51.432;-2.598;2022-09-09T03:35:33;3.75;;;1.70;;
56255;SDS011;57229;51.432;-2.598;2022-09-09T03:37:59;4.63;;;1.67;;
56255;SDS011;57229;51.432;-2.598;2022-09-09T03:40:25;2.55;;;1.50;;
56255;SDS011;57229;51.432;-2.598;2022-09-09T03:42:51;5.05;;;1.60;;
56255;SDS011;57229;51.432;-2.598;2022-09-09T03:45:17;4.28;;;1.63;;
56255;SDS011;57229;51.432;-2.598;2022-09-09T03:47:43;6.22;;;2.10;;
56255;SDS011;57229;51.432;-2.598;2022-09-09T03:50:09;5.88;;;1.83;;
56255;SDS011;57229;51.432;-2.598;2022-09-09T03:52:36;2.17;;;1.70;;
56255;SDS011;57229;51.432;-2.598;2022-09-09T03:55:03;3.47;;;1.63;;
56255;SDS011;57229;51.432;-2.598;2022-09-09T03:57:30;5.85;;;1.85;;
56255;SDS011;57229;51.432;-2.598;2022-09-09T03:59:57;4.68;;;1.80;;
56255;SDS011;57229;51.432;-2.598;2022-09-09T04:02:26;2.83;;;1.50;;
56255;SDS011;57229;51.432;-2.598;2022-09-09T04:04:51;5.28;;;1.98;;
56255;SDS011;57229;51.432;-2.598;2022-09-09T04:07:17;4.47;;;1.50;;
56255;SDS011;57229;51.432;-2.598;2022-09-09T04:09:43;2.25;;;1.90;;
56255;SDS011;57229;51.432;-2.598;2022-09-09T04:12:08;3.10;;;1.80;;
56255;SDS011;57229;51.432;-2.598;2022-09-09T04:14:38;4.22;;;2.10;;
56255;SDS011;57229;51.432;-2.598;2022-09-09T04:17:03;3.22;;;1.50;;
56255;SDS011;57229;51.432;-2.598;2022-09-09T04:19:31;3.50;;;1.63;;
56255;SDS011;57229;51.432;-2.598;2022-09-09T04:21:57;4.80;;;1.70;;
56255;SDS011;57229;51.432;-2.598;2022-09-09T04:24:24;4.05;;;1.83;;
56255;SDS011;57229;51.432;-2.598;2022-09-09T04:26:56;2.75;;;1.60;;
56255;SDS011;57229;51.432;-2.598;2022-09-09T04:29:22;3.28;;;1.70;;
56255;SDS011;57229;51.432;-2.598;2022-09-09T04:31:48;5.65;;;1.90;;
56255;SDS011;57229;51.432;-2.598;2022-09-09T04:34:14;3.47;;;1.60;;
56255;SDS011;57229;51.432;-2.598;2022-09-09T04:36:40;3.58;;;1.63;;
56255;SDS011;57229;51.432;-2.598;2022-09-09T04:39:05;3.95;;;2.08;;
56255;SDS011;57229;51.432;-2.598;2022-09-09T04:41:32;4.32;;;1.40;;
56255;SDS011;57229;51.432;-2.598;2022-09-09T04:43:57;2.88;;;1.77;;
56255;SDS011;57229;51.432;-2.598;2022-09-09T04:46:25;4.63;;;1.60;;
56255;SDS011;57229;51.432;-2.598;2022-09-09T04:48:51;3.97;;;2.00;;
56255;SDS011;57229;51.432;-2.598;2022-09-09T04:51:17;7.97;;;2.05;;
56255;SDS011;57229;51.432;-2.598;2022-09-09T04:53:45;4.35;;;1.90;;
56255;SDS011;57229;51.432;-2.598;2022-09-09T04:56:16;5.07;;;1.75;;
56255;SDS011;57229;51.432;-2.598;2022-09-09T04:58:43;6.22;;;2.20;;
56255;SDS011;57229;51.432;-2.598;2022-09-09T05:01:13;3.88;;;1.88;;
56255;SDS011;57229;51.432;-2.598;2022-09-09T05:03:43;2.22;;;1.63;;
56255;SDS011;57229;51.432;-2.598;2022-09-09T05:06:16;3.85;;;1.83;;
56255;SDS011;57229;51.432;-2.598;2022-09-09T05:08:43;2.03;;;1.52;;
56255;SDS011;57229;51.432;-2.598;2022-09-09T05:13:43;2.50;;;1.60;;
56255;SDS011;57229;51.432;-2.598;2022-09-09T05:16:10;2.03;;;1.42;;
56255;SDS011;57229;51.432;-2.598;2022-09-09T05:18:37;3.28;;;1.63;;
56255;SDS011;57229;51.432;-2.598;2022-09-09T05:21:04;3.83;;;1.60;;
56255;SDS011;57229;51.432;-2.598;2022-09-09T05:23:31;3.28;;;1.60;;
56255;SDS011;57229;51.432;-2.598;2022-09-09T05:25:58;2.97;;;1.48;;
56255;SDS011;57229;51.432;-2.598;2022-09-09T05:28:25;3.75;;;1.40;;
56255;SDS011;57229;51.432;-2.598;2022-09-09T05:30:55;4.07;;;1.60;;
56255;SDS011;57229;51.432;-2.598;2022-09-09T05:33:25;6.68;;;2.10;;
56255;SDS011;57229;51.432;-2.598;2022-09-09T05:35:58;2.47;;;1.40;;
56255;SDS011;57229;51.432;-2.598;2022-09-09T05:38:25;5.03;;;1.55;;
56255;SDS011;57229;51.432;-2.598;2022-09-09T05:40:51;4.88;;;2.00;;
56255;SDS011;57229;51.432;-2.598;2022-09-09T05:43:18;2.70;;;1.40;;
56255;SDS011;57229;51.432;-2.598;2022-09-09T05:45:45;4.43;;;1.48;;
56255;SDS011;57229;51.432;-2.598;2022-09-09T05:48:23;4.03;;;1.50;;
56255;SDS011;57229;51.432;-2.598;2022-09-09T05:50:52;5.85;;;1.60;;
56255;SDS011;57229;51.432;-2.598;2022-09-09T05:53:19;4.03;;;1.50;;
56255;SDS011;57229;51.432;-2.598;2022-09-09T05:55:45;3.72;;;1.40;;
56255;SDS011;57229;51.432;-2.598;2022-09-09T05:58:11;4.93;;;1.50;;
56255;SDS011;57229;51.432;-2.598;2022-09-09T06:00:36;3.03;;;1.52;;
56255;SDS011;57229;51.432;-2.598;2022-09-09T06:03:03;7.03;;;1.92;;
56255;SDS011;57229;51.432;-2.598;2022-09-09T06:05:29;4.97;;;1.65;;
56255;SDS011;57229;51.432;-2.598;2022-09-09T06:07:55;2.88;;;1.60;;
56255;SDS011;57229;51.432;-2.598;2022-09-09T06:10:21;3.30;;;1.60;;
56255;SDS011;57229;51.432;-2.598;2022-09-09T06:12:47;3.63;;;1.60;;
56255;SDS011;57229;51.432;-2.598;2022-09-09T06:15:12;5.03;;;1.85;;
56255;SDS011;57229;51.432;-2.598;2022-09-09T06:17:38;4.28;;;1.70;;
56255;SDS011;57229;51.432;-2.598;2022-09-09T06:20:04;4.63;;;1.80;;
56255;SDS011;57229;51.432;-2.598;2022-09-09T06:22:30;3.55;;;1.70;;
56255;SDS011;57229;51.432;-2.598;2022-09-09T06:24:56;4.05;;;1.80;;
56255;SDS011;57229;51.432;-2.598;2022-09-09T06:27:22;3.67;;;1.60;;
56255;SDS011;57229;51.432;-2.598;2022-09-09T06:29:47;2.80;;;1.48;;
56255;SDS011;57229;51.432;-2.598;2022-09-09T06:32:13;4.80;;;1.63;;
56255;SDS011;57229;51.432;-2.598;2022-09-09T06:34:39;6.03;;;1.80;;
56255;SDS011;57229;51.432;-2.598;2022-09-09T06:37:05;11.40;;;1.83;;
56255;SDS011;57229;51.432;-2.598;2022-09-09T06:39:31;5.47;;;1.60;;
56255;SDS011;57229;51.432;-2.598;2022-09-09T06:41:57;3.30;;;1.48;;
56255;SDS011;57229;51.432;-2.598;2022-09-09T06:44:23;2.72;;;1.50;;
56255;SDS011;57229;51.432;-2.598;2022-09-09T06:46:51;7.10;;;1.77;;
56255;SDS011;57229;51.432;-2.598;2022-09-09T06:49:17;8.00;;;1.63;;
56255;SDS011;57229;51.432;-2.598;2022-09-09T06:51:43;4.72;;;1.70;;
56255;SDS011;57229;51.432;-2.598;2022-09-09T06:54:09;5.18;;;1.90;;
56255;SDS011;57229;51.432;-2.598;2022-09-09T06:56:36;6.28;;;2.55;;
56255;SDS011;57229;51.432;-2.598;2022-09-09T06:59:05;6.80;;;1.80;;
56255;SDS011;57229;51.432;-2.598;2022-09-09T07:01:34;11.20;;;2.20;;
56255;SDS011;57229;51.432;-2.598;2022-09-09T07:04:02;6.43;;;2.85;;
56255;SDS011;57229;51.432;-2.598;2022-09-09T07:06:33;5.55;;;2.13;;
56255;SDS011;57229;51.432;-2.598;2022-09-09T07:09:02;5.18;;;1.80;;
56255;SDS011;57229;51.432;-2.598;2022-09-09T07:11:31;7.65;;;1.95;;
56255;SDS011;57229;51.432;-2.598;2022-09-09T07:14:03;5.18;;;2.25;;
56255;SDS011;57229;51.432;-2.598;2022-09-09T07:16:29;6.60;;;2.08;;
56255;SDS011;57229;51.432;-2.598;2022-09-09T07:18:56;5.32;;;1.90;;
56255;SDS011;57229;51.432;-2.598;2022-09-09T07:21:26;5.40;;;2.53;;
56255;SDS011;57229;51.432;-2.598;2022-09-09T07:23:52;7.63;;;2.10;;
56255;SDS011;57229;51.432;-2.598;2022-09-09T07:26:19;7.28;;;2.15;;
56255;SDS011;57229;51.432;-2.598;2022-09-09T07:28:47;5.13;;;2.00;;
56255;SDS011;57229;51.432;-2.598;2022-09-09T07:31:17;5.45;;;2.05;;
56255;SDS011;57229;51.432;-2.598;2022-09-09T07:33:47;3.95;;;1.90;;
56255;SDS011;57229;51.432;-2.598;2022-09-09T07:36:14;5.95;;;1.90;;
56255;SDS011;57229;51.432;-2.598;2022-09-09T07:38:50;4.93;;;2.10;;
56255;SDS011;57229;51.432;-2.598;2022-09-09T07:41:25;3.92;;;1.70;;
56255;SDS011;57229;51.432;-2.598;2022-09-09T07:43:53;5.68;;;1.88;;
56255;SDS011;57229;51.432;-2.598;2022-09-09T07:46:19;8.93;;;2.10;;
56255;SDS011;57229;51.432;-2.598;2022-09-09T07:48:47;8.27;;;2.10;;
56255;SDS011;57229;51.432;-2.598;2022-09-09T07:51:22;14.63;;;2.22;;
56255;SDS011;57229;51.432;-2.598;2022-09-09T07:53:57;6.93;;;1.90;;
56255;SDS011;57229;51.432;-2.598;2022-09-09T07:56:24;6.22;;;1.90;;
56255;SDS011;57229;51.432;-2.598;2022-09-09T07:58:52;4.65;;;2.00;;
56255;SDS011;57229;51.432;-2.598;2022-09-09T08:03:54;7.57;;;2.00;;
56255;SDS011;57229;51.432;-2.598;2022-09-09T08:06:24;5.38;;;1.90;;
56255;SDS011;57229;51.432;-2.598;2022-09-09T08:08:51;5.20;;;2.22;;
56255;SDS011;57229;51.432;-2.598;2022-09-09T08:11:18;8.15;;;2.22;;
56255;SDS011;57229;51.432;-2.598;2022-09-09T08:13:44;4.47;;;1.88;;
56255;SDS011;57229;51.432;-2.598;2022-09-09T08:18:37;4.13;;;2.10;;
56255;SDS011;57229;51.432;-2.598;2022-09-09T08:21:05;4.50;;;2.03;;
56255;SDS011;57229;51.432;-2.598;2022-09-09T08:23:39;5.10;;;1.83;;
56255;SDS011;57229;51.432;-2.598;2022-09-09T08:26:16;2.25;;;1.50;;
56255;SDS011;57229;51.432;-2.598;2022-09-09T08:28:44;3.95;;;1.48;;
56255;SDS011;57229;51.432;-2.598;2022-09-09T08:31:11;4.32;;;1.50;;
56255;SDS011;57229;51.432;-2.598;2022-09-09T08:33:39;2.90;;;1.50;;
56255;SDS011;57229;51.432;-2.598;2022-09-09T08:36:06;2.45;;;1.40;;
56255;SDS011;57229;51.432;-2.598;2022-09-09T08:38:35;3.83;;;1.50;;
56255;SDS011;57229;51.432;-2.598;2022-09-09T08:43:58;3.13;;;1.38;;
56255;SDS011;57229;51.432;-2.598;2022-09-09T08:49:06;3.63;;;1.65;;
56255;SDS011;57229;51.432;-2.598;2022-09-09T08:51:39;3.42;;;1.50;;
56255;SDS011;57229;51.432;-2.598;2022-09-09T08:54:04;3.08;;;1.40;;
56255;SDS011;57229;51.432;-2.598;2022-09-09T08:56:31;4.15;;;1.48;;
56255;SDS011;57229;51.432;-2.598;2022-09-09T08:58:59;3.58;;;1.40;;
56255;SDS011;57229;51.432;-2.598;2022-09-09T09:04:21;2.60;;;1.67;;
56255;SDS011;57229;51.432;-2.598;2022-09-09T09:07:07;6.40;;;1.50;;
56255;SDS011;57229;51.432;-2.598;2022-09-09T09:09:56;4.88;;;1.90;;
56255;SDS011;57229;51.432;-2.598;2022-09-09T09:12:40;3.80;;;1.58;;
56255;SDS011;57229;51.432;-2.598;2022-09-09T09:15:14;4.03;;;1.40;;
56255;SDS011;57229;51.432;-2.598;2022-09-09T09:17:44;4.50;;;1.67;;
56255;SDS011;57229;51.432;-2.598;2022-09-09T09:20:16;3.95;;;1.52;;
56255;SDS011;57229;51.432;-2.598;2022-09-09T09:22:50;1.60;;;1.47;;
56255;SDS011;57229;51.432;-2.598;2022-09-09T09:25:26;5.28;;;1.50;;
56255;SDS011;57229;51.432;-2.598;2022-09-09T09:28:00;3.15;;;1.60;;
56255;SDS011;57229;51.432;-2.598;2022-09-09T09:36:06;3.53;;;1.30;;
56255;SDS011;57229;51.432;-2.598;2022-09-09T09:38:33;3.92;;;1.60;;
56255;SDS011;57229;51.432;-2.598;2022-09-09T09:41:01;2.20;;;1.50;;
56255;SDS011;57229;51.432;-2.598;2022-09-09T09:43:27;5.53;;;1.50;;
56255;SDS011;57229;51.432;-2.598;2022-09-09T09:45:58;3.10;;;1.40;;
56255;SDS011;57229;51.432;-2.598;2022-09-09T09:48:25;3.00;;;1.30;;
56255;SDS011;57229;51.432;-2.598;2022-09-09T09:51:08;2.30;;;1.45;;
56255;SDS011;57229;51.432;-2.598;2022-09-09T09:53:37;2.35;;;1.48;;
56255;SDS011;57229;51.432;-2.598;2022-09-09T10:01:25;2.20;;;1.30;;
56255;SDS011;57229;51.432;-2.598;2022-09-09T10:04:03;3.17;;;1.40;;
56255;SDS011;57229;51.432;-2.598;2022-09-09T10:06:41;1.38;;;1.20;;
56255;SDS011;57229;51.432;-2.598;2022-09-09T10:09:26;2.45;;;1.40;;
56255;SDS011;57229;51.432;-2.598;2022-09-09T10:13:00;1.98;;;1.50;;
56255;SDS011;57229;51.432;-2.598;2022-09-09T10:20:45;1.95;;;1.40;;
56255;SDS011;57229;51.432;-2.598;2022-09-09T10:31:38;1.48;;;1.38;;
56255;SDS011;57229;51.432;-2.598;2022-09-09T10:42:51;3.35;;;1.63;;
56255;SDS011;57229;51.432;-2.598;2022-09-09T10:51:19;4.63;;;1.52;;
56255;SDS011;57229;51.432;-2.598;2022-09-09T10:53:53;4.80;;;1.60;;
56255;SDS011;57229;51.432;-2.598;2022-09-09T10:56:40;5.20;;;1.65;;
56255;SDS011;57229;51.432;-2.598;2022-09-09T10:59:12;2.97;;;1.80;;
56255;SDS011;57229;51.432;-2.598;2022-09-09T11:01:48;2.15;;;1.55;;
56255;SDS011;57229;51.432;-2.598;2022-09-09T11:04:32;2.65;;;1.77;;
56255;SDS011;57229;51.432;-2.598;2022-09-09T11:07:12;2.97;;;1.63;;
56255;SDS011;57229;51.432;-2.598;2022-09-09T11:09:49;2.90;;;1.70;;
56255;SDS011;57229;51.432;-2.598;2022-09-09T11:12:18;2.83;;;1.55;;
56255;SDS011;57229;51.432;-2.598;2022-09-09T11:14:49;3.30;;;1.90;;
56255;SDS011;57229;51.432;-2.598;2022-09-09T11:17:36;3.88;;;1.73;;
56255;SDS011;57229;51.432;-2.598;2022-09-09T11:20:11;3.47;;;1.70;;
56255;SDS011;57229;51.432;-2.598;2022-09-09T11:22:39;3.88;;;1.60;;
56255;SDS011;57229;51.432;-2.598;2022-09-09T11:25:17;2.83;;;1.70;;
56255;SDS011;57229;51.432;-2.598;2022-09-09T11:38:26;3.35;;;1.80;;
56255;SDS011;57229;51.432;-2.598;2022-09-09T11:41:02;2.13;;;1.60;;
56255;SDS011;57229;51.432;-2.598;2022-09-09T11:43:41;3.05;;;1.88;;
56255;SDS011;57229;51.432;-2.598;2022-09-09T11:46:10;6.35;;;2.25;;
56255;SDS011;57229;51.432;-2.598;2022-09-09T11:48:38;4.63;;;1.83;;
56255;SDS011;57229;51.432;-2.598;2022-09-09T11:51:11;2.83;;;2.00;;
56255;SDS011;57229;51.432;-2.598;2022-09-09T11:53:51;2.55;;;1.80;;
56255;SDS011;57229;51.432;-2.598;2022-09-09T11:56:34;2.88;;;1.95;;
56255;SDS011;57229;51.432;-2.598;2022-09-09T11:59:25;4.47;;;2.13;;
56255;SDS011;57229;51.432;-2.598;2022-09-09T12:02:00;4.82;;;2.47;;
56255;SDS011;57229;51.432;-2.598;2022-09-09T12:06:57;4.18;;;2.40;;
56255;SDS011;57229;51.432;-2.598;2022-09-09T12:14:44;4.07;;;3.05;;
56255;SDS011;57229;51.432;-2.598;2022-09-09T12:17:43;6.85;;;2.47;;
56255;SDS011;57229;51.432;-2.598;2022-09-09T12:20:21;5.30;;;2.65;;
56255;SDS011;57229;51.432;-2.598;2022-09-09T12:31:15;3.70;;;2.30;;
56255;SDS011;57229;51.432;-2.598;2022-09-09T12:37:02;4.97;;;2.20;;
56255;SDS011;57229;51.432;-2.598;2022-09-09T12:39:51;3.50;;;2.20;;
56255;SDS011;57229;51.432;-2.598;2022-09-09T12:42:21;3.15;;;2.10;;
56255;SDS011;57229;51.432;-2.598;2022-09-09T12:44:55;5.80;;;2.22;;
56255;SDS011;57229;51.432;-2.598;2022-09-09T12:47:42;6.57;;;2.40;;
56255;SDS011;57229;51.432;-2.598;2022-09-09T12:50:37;2.75;;;1.80;;
56255;SDS011;57229;51.432;-2.598;2022-09-09T12:53:10;6.15;;;1.90;;
56255;SDS011;57229;51.432;-2.598;2022-09-09T12:55:48;2.88;;;1.75;;
56255;SDS011;57229;51.432;-2.598;2022-09-09T12:58:25;2.20;;;1.60;;
56255;SDS011;57229;51.432;-2.598;2022-09-09T13:00:54;2.72;;;1.88;;
56255;SDS011;57229;51.432;-2.598;2022-09-09T13:03:21;5.07;;;2.10;;
56255;SDS011;57229;51.432;-2.598;2022-09-09T13:05:48;3.05;;;2.17;;
56255;SDS011;57229;51.432;-2.598;2022-09-09T13:08:15;4.03;;;2.17;;
56255;SDS011;57229;51.432;-2.598;2022-09-09T13:10:59;6.75;;;2.33;;
56255;SDS011;57229;51.432;-2.598;2022-09-09T13:13:28;3.50;;;2.20;;
56255;SDS011;57229;51.432;-2.598;2022-09-09T13:16:00;3.85;;;2.45;;
56255;SDS011;57229;51.432;-2.598;2022-09-09T13:18:30;4.15;;;2.55;;
56255;SDS011;57229;51.432;-2.598;2022-09-09T13:21:00;4.72;;;2.40;;
56255;SDS011;57229;51.432;-2.598;2022-09-09T13:23:27;7.78;;;2.78;;
56255;SDS011;57229;51.432;-2.598;2022-09-09T13:26:00;4.07;;;2.75;;
56255;SDS011;57229;51.432;-2.598;2022-09-09T13:28:48;5.20;;;2.70;;
56255;SDS011;57229;51.432;-2.598;2022-09-09T13:31:22;6.47;;;2.90;;
56255;SDS011;57229;51.432;-2.598;2022-09-09T13:33:53;3.60;;;2.75;;
56255;SDS011;57229;51.432;-2.598;2022-09-09T13:36:27;4.43;;;2.80;;
56255;SDS011;57229;51.432;-2.598;2022-09-09T13:38:58;8.95;;;3.42;;
56255;SDS011;57229;51.432;-2.598;2022-09-09T13:41:35;6.40;;;3.13;;
56255;SDS011;57229;51.432;-2.598;2022-09-09T13:44:14;6.78;;;2.80;;
56255;SDS011;57229;51.432;-2.598;2022-09-09T13:46:48;6.82;;;3.08;;
56255;SDS011;57229;51.432;-2.598;2022-09-09T13:49:29;5.85;;;3.00;;
56255;SDS011;57229;51.432;-2.598;2022-09-09T13:52:14;4.03;;;2.40;;
56255;SDS011;57229;51.432;-2.598;2022-09-09T13:54:48;3.97;;;2.60;;
56255;SDS011;57229;51.432;-2.598;2022-09-09T13:57:15;6.97;;;2.63;;
56255;SDS011;57229;51.432;-2.598;2022-09-09T13:59:42;4.05;;;2.55;;
56255;SDS011;57229;51.432;-2.598;2022-09-09T14:02:08;5.97;;;2.88;;
56255;SDS011;57229;51.432;-2.598;2022-09-09T14:04:33;5.68;;;2.60;;
56255;SDS011;57229;51.432;-2.598;2022-09-09T14:07:00;6.90;;;3.42;;
56255;SDS011;57229;51.432;-2.598;2022-09-09T14:09:26;3.95;;;2.78;;
56255;SDS011;57229;51.432;-2.598;2022-09-09T14:11:52;5.88;;;3.35;;
56255;SDS011;57229;51.432;-2.598;2022-09-09T14:14:17;8.05;;;3.00;;
56255;SDS011;57229;51.432;-2.598;2022-09-09T14:16:43;7.05;;;3.38;;
56255;SDS011;57229;51.432;-2.598;2022-09-09T14:19:09;6.15;;;2.97;;
56255;SDS011;57229;51.432;-2.598;2022-09-09T14:21:35;4.97;;;2.30;;
56255;SDS011;57229;51.432;-2.598;2022-09-09T14:24:01;2.97;;;2.30;;
56255;SDS011;57229;51.432;-2.598;2022-09-09T14:26:26;5.47;;;2.70;;
56255;SDS011;57229;51.432;-2.598;2022-09-09T14:28:53;3.08;;;2.15;;
56255;SDS011;57229;51.432;-2.598;2022-09-09T14:31:20;3.95;;;2.55;;
56255;SDS011;57229;51.432;-2.598;2022-09-09T14:33:46;3.60;;;2.35;;
56255;SDS011;57229;51.432;-2.598;2022-09-09T14:36:11;2.50;;;2.30;;
56255;SDS011;57229;51.432;-2.598;2022-09-09T14:38:38;2.67;;;2.35;;
56255;SDS011;57229;51.432;-2.598;2022-09-09T14:41:05;2.90;;;2.20;;
56255;SDS011;57229;51.432;-2.598;2022-09-09T14:43:31;3.05;;;2.33;;
56255;SDS011;57229;51.432;-2.598;2022-09-09T14:46:07;4.20;;;2.20;;
56255;SDS011;57229;51.432;-2.598;2022-09-09T14:48:34;3.10;;;2.22;;
56255;SDS011;57229;51.432;-2.598;2022-09-09T14:51:07;3.13;;;2.30;;
56255;SDS011;57229;51.432;-2.598;2022-09-09T14:53:34;3.58;;;2.40;;
56255;SDS011;57229;51.432;-2.598;2022-09-09T14:56:07;2.25;;;1.98;;
56255;SDS011;57229;51.432;-2.598;2022-09-09T14:58:37;1.70;;;1.40;;
56255;SDS011;57229;51.432;-2.598;2022-09-09T15:01:08;1.65;;;1.50;;
56255;SDS011;57229;51.432;-2.598;2022-09-09T15:03:37;2.50;;;1.30;;
56255;SDS011;57229;51.432;-2.598;2022-09-09T15:06:04;3.22;;;1.35;;
56255;SDS011;57229;51.432;-2.598;2022-09-09T15:08:38;1.30;;;1.20;;
56255;SDS011;57229;51.432;-2.598;2022-09-09T15:11:09;2.42;;;1.23;;
56255;SDS011;57229;51.432;-2.598;2022-09-09T15:13:36;2.35;;;1.50;;
56255;SDS011;57229;51.432;-2.598;2022-09-09T15:18:30;3.65;;;1.52;;
56255;SDS011;57229;51.432;-2.598;2022-09-09T15:20:58;9.38;;;1.75;;
56255;SDS011;57229;51.432;-2.598;2022-09-09T15:23:25;5.60;;;1.55;;
56255;SDS011;57229;51.432;-2.598;2022-09-09T15:25:54;5.03;;;1.70;;
56255;SDS011;57229;51.432;-2.598;2022-09-09T15:28:21;3.30;;;2.03;;
56255;SDS011;57229;51.432;-2.598;2022-09-09T15:30:51;4.22;;;1.70;;
56255;SDS011;57229;51.432;-2.598;2022-09-09T15:33:18;3.78;;;1.85;;
56255;SDS011;57229;51.432;-2.598;2022-09-09T15:35:45;4.40;;;1.83;;
56255;SDS011;57229;51.432;-2.598;2022-09-09T15:38:11;6.25;;;1.83;;
56255;SDS011;57229;51.432;-2.598;2022-09-09T15:40:40;3.42;;;2.00;;
56255;SDS011;57229;51.432;-2.598;2022-09-09T15:43:06;5.10;;;2.00;;
56255;SDS011;57229;51.432;-2.598;2022-09-09T15:45:33;5.60;;;1.92;;
56255;SDS011;57229;51.432;-2.598;2022-09-09T15:47:59;2.85;;;1.60;;
56255;SDS011;57229;51.432;-2.598;2022-09-09T15:50:26;4.05;;;1.85;;
56255;SDS011;57229;51.432;-2.598;2022-09-09T15:52:51;6.78;;;1.83;;
56255;SDS011;57229;51.432;-2.598;2022-09-09T15:55:18;5.85;;;1.90;;
56255;SDS011;57229;51.432;-2.598;2022-09-09T15:57:45;2.80;;;1.55;;
56255;SDS011;57229;51.432;-2.598;2022-09-09T16:00:11;4.40;;;1.48;;
56255;SDS011;57229;51.432;-2.598;2022-09-09T16:02:39;3.03;;;1.65;;
56255;SDS011;57229;51.432;-2.598;2022-09-09T16:05:05;6.63;;;1.50;;
56255;SDS011;57229;51.432;-2.598;2022-09-09T16:07:31;3.78;;;1.48;;
56255;SDS011;57229;51.432;-2.598;2022-09-09T16:09:56;2.85;;;1.40;;
56255;SDS011;57229;51.432;-2.598;2022-09-09T16:12:22;3.83;;;1.50;;
56255;SDS011;57229;51.432;-2.598;2022-09-09T16:14:48;3.40;;;1.55;;
56255;SDS011;57229;51.432;-2.598;2022-09-09T16:17:14;4.95;;;1.70;;
56255;SDS011;57229;51.432;-2.598;2022-09-09T16:19:40;5.50;;;1.60;;
56255;SDS011;57229;51.432;-2.598;2022-09-09T16:22:06;3.92;;;1.40;;
56255;SDS011;57229;51.432;-2.598;2022-09-09T16:24:32;2.97;;;1.55;;
56255;SDS011;57229;51.432;-2.598;2022-09-09T16:26:58;3.50;;;1.77;;
56255;SDS011;57229;51.432;-2.598;2022-09-09T16:29:24;4.93;;;1.55;;
56255;SDS011;57229;51.432;-2.598;2022-09-09T16:31:52;1.98;;;1.30;;
56255;SDS011;57229;51.432;-2.598;2022-09-09T16:34:18;3.20;;;1.65;;
56255;SDS011;57229;51.432;-2.598;2022-09-09T16:36:44;3.95;;;1.30;;
56255;SDS011;57229;51.432;-2.598;2022-09-09T16:39:12;8.43;;;1.60;;
56255;SDS011;57229;51.432;-2.598;2022-09-09T16:41:45;5.47;;;1.38;;
56255;SDS011;57229;51.432;-2.598;2022-09-09T16:44:13;3.20;;;1.40;;
56255;SDS011;57229;51.432;-2.598;2022-09-09T16:46:41;3.28;;;1.48;;
56255;SDS011;57229;51.432;-2.598;2022-09-09T16:49:09;3.85;;;1.80;;
56255;SDS011;57229;51.432;-2.598;2022-09-09T16:51:41;4.55;;;1.40;;
56255;SDS011;57229;51.432;-2.598;2022-09-09T16:54:09;4.65;;;1.50;;
56255;SDS011;57229;51.432;-2.598;2022-09-09T16:56:37;2.83;;;1.67;;
56255;SDS011;57229;51.432;-2.598;2022-09-09T16:59:08;3.72;;;1.50;;
56255;SDS011;57229;51.432;-2.598;2022-09-09T17:01:37;4.38;;;1.70;;
56255;SDS011;57229;51.432;-2.598;2022-09-09T17:04:06;3.15;;;1.70;;
56255;SDS011;57229;51.432;-2.598;2022-09-09T17:06:34;3.08;;;1.58;;
56255;SDS011;57229;51.432;-2.598;2022-09-09T17:09:02;5.10;;;1.85;;
56255;SDS011;57229;51.432;-2.598;2022-09-09T17:11:31;3.20;;;1.60;;
56255;SDS011;57229;51.432;-2.598;2022-09-09T17:13:56;3.03;;;1.60;;
56255;SDS011;57229;51.432;-2.598;2022-09-09T17:16:23;3.38;;;1.75;;
56255;SDS011;57229;51.432;-2.598;2022-09-09T17:18:52;2.58;;;1.92;;